createdAt,value
2019-05-25T00:03:19.693Z,21.48
2019-05-25T00:05:49.557Z,22.85
2019-05-25T00:08:19.460Z,18.73
2019-05-25T00:10:49.274Z,21.37
2019-05-25T00:13:19.083Z,19.47
2019-05-25T00:15:48.882Z,19.98
2019-05-25T00:18:28.703Z,19.10
2019-05-25T00:20:58.462Z,19.73
2019-05-25T00:23:28.237Z,19.23
2019-05-25T00:25:58.119Z,18.63
2019-05-25T00:28:29.922Z,20.32
2019-05-25T00:30:59.768Z,20.33
2019-05-25T00:33:29.645Z,18.77
2019-05-25T00:35:59.442Z,20.13
2019-05-25T00:38:29.268Z,19.10
2019-05-25T00:41:00.064Z,20.70
2019-05-25T00:43:30.964Z,19.73
2019-05-25T00:46:00.796Z,20.80
2019-05-25T00:48:31.661Z,19.57
2019-05-25T00:51:01.471Z,22.60
2019-05-25T00:53:35.905Z,21.27
2019-05-25T00:56:05.772Z,20.90
2019-05-25T00:58:38.979Z,22.40
2019-05-25T01:01:08.846Z,21.70
2019-05-25T01:03:38.726Z,21.20
2019-05-25T01:06:08.484Z,22.65
2019-05-25T01:08:40.274Z,21.57
2019-05-25T01:11:10.060Z,22.00
2019-05-25T01:13:39.880Z,23.07
2019-05-25T01:16:09.765Z,21.75
2019-05-25T01:18:39.652Z,22.52
2019-05-25T01:21:09.467Z,26.35
2019-05-25T01:23:39.279Z,26.12
2019-05-25T01:26:09.163Z,23.15
2019-05-25T01:29:10.173Z,24.00
2019-05-25T01:31:40.035Z,22.48
2019-05-25T01:34:09.852Z,23.42
2019-05-25T01:36:39.642Z,24.10
2019-05-25T01:39:27.470Z,25.40
2019-05-25T01:41:57.306Z,25.15
2019-05-25T01:44:27.053Z,23.67
2019-05-25T01:46:56.905Z,22.95
2019-05-25T01:49:46.770Z,24.47
2019-05-25T01:52:16.628Z,23.80
2019-05-25T01:54:59.026Z,23.20
2019-05-25T01:57:17.932Z,24.52
2019-05-25T01:59:50.800Z,26.85
2019-05-25T02:02:23.678Z,22.53
2019-05-25T02:04:55.023Z,23.27
2019-05-25T02:07:24.816Z,22.37
2019-05-25T02:09:57.214Z,25.72
2019-05-25T02:12:26.995Z,23.12
2019-05-25T02:14:56.745Z,22.62
2019-05-25T02:17:26.526Z,22.90
2019-05-25T02:19:58.381Z,23.90
2019-05-25T02:22:28.248Z,22.47
2019-05-25T02:24:58.052Z,24.18
2019-05-25T02:27:27.840Z,22.05
2019-05-25T02:29:57.721Z,24.80
2019-05-25T02:32:27.517Z,23.87
2019-05-25T02:34:58.342Z,21.97
2019-05-25T02:37:29.171Z,22.07
2019-05-25T02:39:58.965Z,22.62
2019-05-25T02:42:28.823Z,23.07
2019-05-25T02:44:58.706Z,23.32
2019-05-25T02:47:28.436Z,23.07
2019-05-25T02:50:03.128Z,25.08
2019-05-25T02:52:32.913Z,22.85
2019-05-25T02:55:02.720Z,22.87
2019-05-25T02:57:32.511Z,23.27
2019-05-25T03:00:09.024Z,23.35
2019-05-25T03:02:40.187Z,23.42
2019-05-25T03:05:12.705Z,23.30
2019-05-25T03:07:43.953Z,22.87
2019-05-25T03:10:14.886Z,21.45
2019-05-25T03:12:45.649Z,23.25
2019-05-25T03:15:15.523Z,23.38
2019-05-25T03:17:45.320Z,23.18
2019-05-25T03:20:15.229Z,24.77
2019-05-25T03:22:45.026Z,22.13
2019-05-25T03:25:14.720Z,22.70
2019-05-25T03:27:44.578Z,23.52
2019-05-25T03:30:14.682Z,24.97
2019-05-25T03:32:45.735Z,24.23
2019-05-25T03:35:15.616Z,27.58
2019-05-25T03:37:45.460Z,26.30
2019-05-25T03:40:15.269Z,26.45
2019-05-25T03:42:45.083Z,24.70
2019-05-25T03:45:16.268Z,25.00
2019-05-25T03:47:46.012Z,25.55
2019-05-25T03:50:15.784Z,24.30
2019-05-25T03:52:45.584Z,23.98
2019-05-25T03:55:15.499Z,27.55
2019-05-25T03:57:45.360Z,23.95
2019-05-25T04:00:15.545Z,25.47
2019-05-25T04:02:45.324Z,24.90
2019-05-25T04:05:15.239Z,22.62
2019-05-25T04:07:45.038Z,22.82
2019-05-25T04:10:17.759Z,23.42
2019-05-25T04:12:47.623Z,23.32
2019-05-25T04:15:17.511Z,23.87
2019-05-25T04:17:48.352Z,21.25
2019-05-25T04:20:18.684Z,24.50
2019-05-25T04:22:48.546Z,22.82
2019-05-25T04:25:36.310Z,22.25
2019-05-25T04:28:06.138Z,22.37
2019-05-25T04:30:36.005Z,20.60
2019-05-25T04:33:05.857Z,20.30
2019-05-25T04:35:35.731Z,20.05
2019-05-25T04:38:06.644Z,21.48
2019-05-25T04:40:38.393Z,22.67
2019-05-25T04:43:09.848Z,19.07
2019-05-25T04:45:39.721Z,17.67
2019-05-25T04:48:15.342Z,19.83
2019-05-25T04:50:45.079Z,17.65
2019-05-25T04:53:14.853Z,16.32
2019-05-25T04:55:44.632Z,16.73
2019-05-25T04:58:17.772Z,19.07
2019-05-25T05:00:47.447Z,19.42
2019-05-25T05:03:17.283Z,18.70
2019-05-25T05:05:47.081Z,19.00
2019-05-25T05:08:17.972Z,17.37
2019-05-25T05:10:47.797Z,17.60
2019-05-25T05:13:17.587Z,19.23
2019-05-25T05:15:47.443Z,16.55
2019-05-25T05:18:21.685Z,15.50
2019-05-25T05:20:51.440Z,16.30
2019-05-25T05:23:21.251Z,17.90
2019-05-25T05:25:51.047Z,18.52
2019-05-25T05:28:20.906Z,16.77
2019-05-25T05:30:50.709Z,15.63
2019-05-25T05:33:20.589Z,18.40
2019-05-25T05:35:50.707Z,17.10
2019-05-25T05:38:25.287Z,18.00
2019-05-25T05:40:56.779Z,18.25
2019-05-25T05:43:29.187Z,15.53
2019-05-25T05:46:01.056Z,17.05
2019-05-25T05:48:38.515Z,15.75
2019-05-25T05:51:10.337Z,19.02
2019-05-25T05:53:51.557Z,17.27
2019-05-25T05:56:21.411Z,20.70
2019-05-25T05:59:05.757Z,19.00
2019-05-25T06:01:37.224Z,17.42
2019-05-25T06:04:06.982Z,19.00
2019-05-25T06:06:36.648Z,14.47
2019-05-25T06:09:24.334Z,16.27
2019-05-25T06:11:54.177Z,14.53
2019-05-25T06:14:28.479Z,15.18
2019-05-25T06:17:02.547Z,17.48
2019-05-25T06:19:35.652Z,17.48
2019-05-25T06:22:05.530Z,19.70
2019-05-25T06:24:35.426Z,17.92
2019-05-25T06:27:05.399Z,16.95
2019-05-25T06:33:00.494Z,17.65
2019-05-25T06:35:31.569Z,17.77
2019-05-25T06:38:08.427Z,19.20
2019-05-25T06:40:42.242Z,19.62
2019-05-25T06:43:12.048Z,20.10
2019-05-25T06:45:43.202Z,18.60
2019-05-25T06:48:49.514Z,21.82
2019-05-25T06:51:19.299Z,17.50
2019-05-25T06:53:49.171Z,18.50
2019-05-25T06:56:18.963Z,18.00
2019-05-25T06:58:51.857Z,20.83
2019-05-25T07:01:21.713Z,21.35
2019-05-25T07:03:51.602Z,21.15
2019-05-25T07:06:23.021Z,23.05
2019-05-25T07:09:27.855Z,21.45
2019-05-25T07:12:02.637Z,22.42
2019-05-25T07:14:35.215Z,24.45
2019-05-25T07:17:05.011Z,20.82
2019-05-25T07:19:34.881Z,19.75
2019-05-25T07:22:04.897Z,22.40
2019-05-25T07:24:34.671Z,22.70
2019-05-25T07:27:04.532Z,23.07
2019-05-25T07:29:34.419Z,27.90
2019-05-25T07:32:04.299Z,23.53
2019-05-25T07:34:34.148Z,22.27
2019-05-25T07:37:04.008Z,25.40
2019-05-25T07:39:33.940Z,28.20
2019-05-25T07:42:03.723Z,25.48
2019-05-25T07:44:33.511Z,26.10
2019-05-25T07:47:03.231Z,31.37
2019-05-25T07:49:51.047Z,39.18
2019-05-25T07:52:20.824Z,40.50
2019-05-25T07:54:50.626Z,40.55
2019-05-25T07:57:20.440Z,38.00
2019-05-25T07:59:50.299Z,30.82
2019-05-25T08:02:20.145Z,31.97
2019-05-25T08:04:49.927Z,40.10
2019-05-25T08:07:19.583Z,45.43
2019-05-25T08:09:53.343Z,46.80
2019-05-25T08:12:24.082Z,38.58
2019-05-25T08:14:53.864Z,42.78
2019-05-25T08:17:28.604Z,36.68
2019-05-25T08:20:01.344Z,44.58
2019-05-25T08:22:31.145Z,44.93
2019-05-25T08:25:00.980Z,49.15
2019-05-25T08:27:38.115Z,48.63
2019-05-25T08:30:14.738Z,41.33
2019-05-25T08:32:44.598Z,40.20
2019-05-25T08:35:14.647Z,43.75
2019-05-25T08:37:46.093Z,41.42
2019-05-25T08:40:15.935Z,37.28
2019-05-25T08:42:45.790Z,45.98
2019-05-25T08:45:16.011Z,43.83
2019-05-25T08:47:46.802Z,41.53
2019-05-25T08:50:16.638Z,48.42
2019-05-25T08:52:48.962Z,46.33
2019-05-25T08:55:19.728Z,50.83
2019-05-25T08:57:49.576Z,49.67
2019-05-25T09:00:19.793Z,45.80
2019-05-25T09:02:49.624Z,42.40
2019-05-25T09:05:19.498Z,44.60
2019-05-25T09:07:49.334Z,46.08
2019-05-25T09:10:19.419Z,46.42
2019-05-25T09:12:49.360Z,49.75
2019-05-25T09:15:20.079Z,55.28
2019-05-25T09:17:49.963Z,51.83
2019-05-25T09:20:19.915Z,41.33
2019-05-25T09:22:50.799Z,51.83
2019-05-25T09:25:20.653Z,52.30
2019-05-25T09:27:50.573Z,48.05
2019-05-25T09:30:20.606Z,40.08
2019-05-25T09:32:54.008Z,47.00
2019-05-25T09:35:23.873Z,44.10
2019-05-25T09:37:53.829Z,42.62
2019-05-25T09:40:27.966Z,42.50
2019-05-25T09:42:57.785Z,42.62
2019-05-25T09:45:27.702Z,37.15
2019-05-25T09:47:57.573Z,39.30
2019-05-25T09:50:27.454Z,50.50
2019-05-25T09:52:57.252Z,43.28
2019-05-25T09:55:27.169Z,42.15
2019-05-25T09:57:57.033Z,44.13
2019-05-25T10:00:26.969Z,42.15
2019-05-25T10:02:56.979Z,42.50
2019-05-25T10:05:26.889Z,45.90
2019-05-25T10:07:56.753Z,46.77
2019-05-25T10:10:26.734Z,40.67
2019-05-25T10:12:56.582Z,40.52
2019-05-25T10:15:28.390Z,42.08
2019-05-25T10:17:58.045Z,40.43
2019-05-25T10:20:30.414Z,38.90
2019-05-25T10:23:01.704Z,37.73
2019-05-25T10:25:36.553Z,39.03
2019-05-25T10:28:09.244Z,42.30
2019-05-25T10:30:39.497Z,42.78
2019-05-25T10:33:09.397Z,37.70
2019-05-25T10:35:39.359Z,37.67
2019-05-25T10:38:11.989Z,38.15
2019-05-25T10:40:42.994Z,38.45
2019-05-25T10:43:12.809Z,37.00
2019-05-25T10:45:44.972Z,36.50
2019-05-25T10:48:15.059Z,36.60
2019-05-25T10:50:45.009Z,37.50
2019-05-25T10:53:17.880Z,34.80
2019-05-25T10:55:47.865Z,37.20
2019-05-25T10:58:19.812Z,33.55
2019-05-25T11:00:50.461Z,34.95
2019-05-25T11:03:20.341Z,32.75
2019-05-25T11:05:52.127Z,32.60
2019-05-25T11:08:23.195Z,32.10
2019-05-25T11:10:53.153Z,32.85
2019-05-25T11:13:23.022Z,29.25
2019-05-25T11:15:52.917Z,29.15
2019-05-25T11:18:22.923Z,30.15
2019-05-25T11:20:53.935Z,30.08
2019-05-25T11:23:23.753Z,27.30
2019-05-25T11:25:53.667Z,27.87
2019-05-25T11:28:27.760Z,25.88
2019-05-25T11:30:57.628Z,26.48
2019-05-25T11:33:27.474Z,24.67
2019-05-25T11:35:57.345Z,25.52
2019-05-25T11:38:28.253Z,23.87
2019-05-25T11:40:58.175Z,23.95
2019-05-25T11:43:28.025Z,23.50
2019-05-25T11:45:58.030Z,21.68
2019-05-25T11:48:27.932Z,24.40
2019-05-25T11:50:57.860Z,19.92
2019-05-25T11:53:27.680Z,19.02
2019-05-25T11:55:57.581Z,16.00
2019-05-25T11:58:27.495Z,15.32
2019-05-25T12:00:58.469Z,17.00
2019-05-25T12:03:28.367Z,17.90
2019-05-25T12:05:58.768Z,16.02
2019-05-25T12:08:28.665Z,16.15
2019-05-25T12:10:58.629Z,15.80
2019-05-25T12:13:31.958Z,12.80
2019-05-25T12:15:59.923Z,12.47
2019-05-25T12:18:29.826Z,9.48
2019-05-25T12:20:59.743Z,10.30
2019-05-25T12:23:31.168Z,8.68
2019-05-25T12:26:01.062Z,8.48
2019-05-25T12:28:34.046Z,8.35
2019-05-25T12:31:03.841Z,7.35
2019-05-25T12:33:33.730Z,7.47
2019-05-25T12:36:04.513Z,5.75
2019-05-25T12:38:58.284Z,6.83
2019-05-25T12:41:29.094Z,5.20
2019-05-25T12:43:58.962Z,5.97
2019-05-25T12:46:28.727Z,4.78
2019-05-25T12:48:58.676Z,4.70
2019-05-25T12:51:28.475Z,4.10
2019-05-25T12:53:58.363Z,4.65
2019-05-25T12:56:28.241Z,4.45
2019-05-25T12:58:58.143Z,5.95
2019-05-25T13:01:28.015Z,6.12
2019-05-25T13:03:57.878Z,9.98
2019-05-25T13:06:29.102Z,7.60
2019-05-25T13:09:04.884Z,11.08
2019-05-25T13:11:42.619Z,9.17
2019-05-25T13:14:15.003Z,7.62
2019-05-25T13:16:45.081Z,9.53
2019-05-25T13:19:16.219Z,8.33
2019-05-25T13:21:46.153Z,6.30
2019-05-25T13:24:16.027Z,8.05
2019-05-25T13:26:45.930Z,17.33
2019-05-25T13:29:15.796Z,10.25
2019-05-25T13:31:45.663Z,10.23
2019-05-25T13:34:15.523Z,8.00
2019-05-25T13:36:45.440Z,6.40
2019-05-25T13:39:20.730Z,4.30
2019-05-25T13:41:51.363Z,6.70
2019-05-25T13:44:21.187Z,4.55
2019-05-25T13:46:51.230Z,3.67
2019-05-25T13:49:21.095Z,5.17
2019-05-25T13:51:52.641Z,5.87
2019-05-25T13:54:22.464Z,3.90
2019-05-25T13:56:52.456Z,4.37
2019-05-25T13:59:28.208Z,3.97
2019-05-25T14:02:03.037Z,2.90
2019-05-25T14:04:35.386Z,3.17
2019-05-25T14:07:16.294Z,5.03
2019-05-25T14:16:29.750Z,3.55
2019-05-25T14:19:02.202Z,6.22
2019-05-25T14:21:32.096Z,4.97
2019-05-25T14:24:01.960Z,3.58
2019-05-25T14:26:31.844Z,3.12
2019-05-25T14:29:03.590Z,6.03
2019-05-25T14:31:45.102Z,7.20
2019-05-25T14:34:11.260Z,5.40
2019-05-25T14:36:41.084Z,4.40
2019-05-25T14:39:10.821Z,4.35
2019-05-25T14:41:40.533Z,3.50
2019-05-25T14:44:10.343Z,3.62
2019-05-25T14:46:40.107Z,5.55
2019-05-25T14:49:09.773Z,4.22
2019-05-25T14:51:39.618Z,4.85
2019-05-25T14:54:09.504Z,4.33
2019-05-25T14:56:39.360Z,4.20
2019-05-25T14:59:09.226Z,3.40
2019-05-25T15:01:39.009Z,4.37
2019-05-25T15:04:08.808Z,3.83
2019-05-25T15:06:38.644Z,4.08
2019-05-25T15:09:12.433Z,6.57
2019-05-25T15:11:43.688Z,5.60
2019-05-25T15:14:13.469Z,4.27
2019-05-25T15:16:43.245Z,5.83
2019-05-25T15:19:16.897Z,5.17
2019-05-25T15:21:47.156Z,4.10
2019-05-25T15:24:17.204Z,3.60
2019-05-25T15:26:48.189Z,5.78
2019-05-25T15:29:27.738Z,3.83
2019-05-25T15:31:57.537Z,3.92
2019-05-25T15:34:27.316Z,4.28
2019-05-25T15:36:57.082Z,5.40
2019-05-25T15:39:30.349Z,3.98
2019-05-25T15:42:00.127Z,4.28
2019-05-25T15:44:29.903Z,3.98
2019-05-25T15:46:59.809Z,3.70
2019-05-25T15:49:42.039Z,3.75
2019-05-25T15:52:18.063Z,4.05
2019-05-25T15:54:47.857Z,4.45
2019-05-25T15:57:18.708Z,4.15
2019-05-25T15:59:51.887Z,4.08
2019-05-25T16:02:35.652Z,4.50
2019-05-25T16:04:53.111Z,4.05
2019-05-25T16:07:22.983Z,4.45
2019-05-25T16:09:54.752Z,4.10
2019-05-25T16:12:24.521Z,3.15
2019-05-25T16:14:54.374Z,4.67
2019-05-25T16:17:26.172Z,3.95
2019-05-25T16:20:07.395Z,4.20
2019-05-25T16:22:37.067Z,4.40
2019-05-25T16:25:08.896Z,4.10
2019-05-25T16:27:47.405Z,5.95
2019-05-25T16:30:17.493Z,5.28
2019-05-25T16:33:10.927Z,3.63
2019-05-25T16:35:18.811Z,4.50
2019-05-25T16:37:48.914Z,4.62
2019-05-25T16:40:19.072Z,3.50
2019-05-25T16:42:48.928Z,4.17
2019-05-25T16:45:18.971Z,4.45
2019-05-25T16:47:48.768Z,4.53
2019-05-25T16:50:18.903Z,5.42
2019-05-25T16:52:48.760Z,4.35
2019-05-25T16:55:18.683Z,5.20
2019-05-25T16:57:48.410Z,4.92
2019-05-25T17:00:29.369Z,4.62
2019-05-25T17:02:59.602Z,4.13
2019-05-25T17:05:29.398Z,5.87
2019-05-25T17:07:59.204Z,5.22
2019-05-25T17:10:29.081Z,5.70
2019-05-25T17:12:58.829Z,6.42
2019-05-25T17:15:28.680Z,5.70
2019-05-25T17:17:59.457Z,5.87
2019-05-25T17:20:29.240Z,6.28
2019-05-25T17:22:59.085Z,6.10
2019-05-25T17:25:28.927Z,6.35
2019-05-25T17:28:01.302Z,7.10
2019-05-25T17:30:45.380Z,6.25
2019-05-25T17:33:15.412Z,6.35
2019-05-25T17:35:45.200Z,6.87
2019-05-25T17:38:24.572Z,7.70
2019-05-25T17:40:54.268Z,8.43
2019-05-25T17:43:24.062Z,7.15
2019-05-25T17:45:53.784Z,7.08
2019-05-25T17:48:23.609Z,7.37
2019-05-25T17:50:53.330Z,8.28
2019-05-25T17:53:23.711Z,9.23
2019-05-25T17:55:54.524Z,8.55
2019-05-25T17:58:24.264Z,9.10
2019-05-25T18:00:54.053Z,8.78
2019-05-25T18:03:23.812Z,7.33
2019-05-25T18:05:55.951Z,7.92
2019-05-25T18:08:29.256Z,8.80
2019-05-25T18:11:00.842Z,9.08
2019-05-25T18:13:32.178Z,9.05
2019-05-25T18:16:02.012Z,8.23
2019-05-25T18:18:33.001Z,9.90
2019-05-25T18:21:02.842Z,9.45
2019-05-25T18:23:32.693Z,9.68
2019-05-25T18:26:02.426Z,11.83
2019-05-25T18:28:32.294Z,10.45
2019-05-25T18:31:02.033Z,9.95
2019-05-25T18:33:31.812Z,10.00
2019-05-25T18:36:01.480Z,10.10
2019-05-25T18:38:37.565Z,9.68
2019-05-25T18:41:07.300Z,7.60
2019-05-25T18:43:37.165Z,8.65
2019-05-25T18:46:06.955Z,8.90
2019-05-25T18:48:36.826Z,9.25
2019-05-25T18:51:06.611Z,9.30
2019-05-25T18:53:36.389Z,10.63
2019-05-25T18:56:06.268Z,9.27
2019-05-25T18:58:36.152Z,9.95
2019-05-25T19:01:05.989Z,8.15
2019-05-25T19:03:35.783Z,7.37
2019-05-25T19:06:05.555Z,8.13
2019-05-25T19:08:40.901Z,6.62
2019-05-25T19:11:10.682Z,5.77
2019-05-25T19:13:40.527Z,7.15
2019-05-25T19:16:10.341Z,8.33
2019-05-25T19:18:41.148Z,8.08
2019-05-25T19:21:11.981Z,6.35
2019-05-25T19:23:41.762Z,6.92
2019-05-25T19:26:11.582Z,9.28
2019-05-25T19:28:41.493Z,6.97
2019-05-25T19:31:11.327Z,6.78
2019-05-25T19:33:41.195Z,6.85
2019-05-25T19:36:10.928Z,7.65
2019-05-25T19:38:42.775Z,6.28
2019-05-25T19:41:12.581Z,7.72
2019-05-25T19:43:42.463Z,6.95
2019-05-25T19:46:12.281Z,6.60
2019-05-25T19:49:00.200Z,8.38
2019-05-25T19:51:29.998Z,6.27
2019-05-25T19:53:59.841Z,6.42
2019-05-25T19:56:29.571Z,7.10
2019-05-25T19:58:59.412Z,7.35
2019-05-25T20:01:29.147Z,5.85
2019-05-25T20:03:59.630Z,10.35
2019-05-25T20:06:29.348Z,7.15
2019-05-25T20:08:59.192Z,6.65
2019-05-25T20:11:28.991Z,6.50
2019-05-25T20:13:58.833Z,5.87
2019-05-25T20:16:28.599Z,5.92
2019-05-25T20:18:58.395Z,7.53
2019-05-25T20:21:28.243Z,6.45
2019-05-25T20:23:58.126Z,5.45
2019-05-25T20:26:27.957Z,4.87
2019-05-25T20:28:59.496Z,5.15
2019-05-25T20:31:29.184Z,5.12
2019-05-25T20:33:59.995Z,4.08
2019-05-25T20:36:29.735Z,4.47
2019-05-25T20:39:38.787Z,5.17
2019-05-25T20:42:15.304Z,4.40
2019-05-25T20:44:47.944Z,4.20
2019-05-25T20:47:23.182Z,5.20
2019-05-25T20:49:55.980Z,4.30
2019-05-25T20:52:25.707Z,4.10
2019-05-25T20:54:55.416Z,5.20
2019-05-25T20:57:25.241Z,4.67
2019-05-25T20:59:55.079Z,4.25
2019-05-25T21:02:25.921Z,6.22
2019-05-25T21:05:13.496Z,4.97
2019-05-25T21:07:44.428Z,4.90
2019-05-25T21:10:14.306Z,5.00
2019-05-25T21:12:44.599Z,5.78
2019-05-25T21:15:14.559Z,6.10
2019-05-25T21:17:44.445Z,7.00
2019-05-25T21:20:14.482Z,6.20
2019-05-25T21:22:44.254Z,5.70
2019-05-25T21:25:14.009Z,6.70
2019-05-25T21:27:44.539Z,5.90
2019-05-25T21:30:16.231Z,6.50
2019-05-25T21:32:46.003Z,5.00
2019-05-25T21:35:21.248Z,6.20
2019-05-25T21:37:51.038Z,6.65
2019-05-25T21:40:20.846Z,5.35
2019-05-25T21:42:51.693Z,5.30
2019-05-25T21:45:21.675Z,6.12
2019-05-25T21:47:56.104Z,6.92
2019-05-25T21:50:23.984Z,5.30
2019-05-25T21:52:53.793Z,6.87
2019-05-25T21:55:23.648Z,5.80
2019-05-25T21:57:53.414Z,6.30
2019-05-25T22:00:25.554Z,6.28
2019-05-25T22:02:56.951Z,6.15
2019-05-25T22:05:30.048Z,6.17
2019-05-25T22:08:03.839Z,6.00
2019-05-25T22:10:33.718Z,7.08
2019-05-25T22:13:03.576Z,6.75
2019-05-25T22:15:33.347Z,6.65
2019-05-25T22:18:03.218Z,6.58
2019-05-25T22:20:32.994Z,7.60
2019-05-25T22:23:02.797Z,6.78
2019-05-25T22:25:32.628Z,8.28
2019-05-25T22:28:07.963Z,8.63
2019-05-25T22:30:37.745Z,8.38
2019-05-25T22:33:07.478Z,8.95
2019-05-25T22:35:37.315Z,9.15
2019-05-25T22:38:44.340Z,7.77
2019-05-25T22:41:14.121Z,9.48
2019-05-25T22:43:45.145Z,10.28
2019-05-25T22:46:15.875Z,10.98
2019-05-25T22:48:52.404Z,8.17
2019-05-25T22:51:22.187Z,9.15
2019-05-25T22:53:52.071Z,11.45
2019-05-25T22:56:21.933Z,9.93
2019-05-25T22:58:53.689Z,9.30
2019-05-25T23:01:23.551Z,8.90
2019-05-25T23:04:11.552Z,8.75
2019-05-25T23:06:56.962Z,10.32
2019-05-25T23:09:16.397Z,9.90
2019-05-25T23:11:46.255Z,11.85
2019-05-25T23:14:19.031Z,9.50
2019-05-25T23:16:48.876Z,10.43
2019-05-25T23:19:55.144Z,11.28
2019-05-25T23:22:24.911Z,9.18
2019-05-25T23:25:01.377Z,8.90
2019-05-25T23:27:31.255Z,10.03
2019-05-25T23:30:01.084Z,11.40
2019-05-25T23:32:31.009Z,11.05
2019-05-25T23:35:02.276Z,9.90
2019-05-25T23:37:32.040Z,10.13
2019-05-25T23:40:20.051Z,9.30
2019-05-25T23:42:49.948Z,9.87
2019-05-25T23:45:21.323Z,10.10
2019-05-25T23:47:51.183Z,12.13
2019-05-25T23:50:21.062Z,9.35
2019-05-25T23:52:50.932Z,12.85
2019-05-25T23:55:23.517Z,10.20
2019-05-25T23:57:53.380Z,9.83
